createdAt,value
2022-08-29T00:02:09.384Z,2.78
2022-08-29T00:04:58.758Z,2.47
2022-08-29T00:07:46.810Z,2.45
2022-08-29T00:10:37.663Z,2.50
2022-08-29T00:13:25.461Z,2.58
2022-08-29T00:16:13.481Z,2.20
2022-08-29T00:19:01.279Z,2.22
2022-08-29T00:21:50.061Z,2.78
2022-08-29T00:24:37.890Z,2.78
2022-08-29T00:27:25.796Z,2.42
2022-08-29T00:30:15.254Z,2.13
2022-08-29T00:33:03.613Z,2.92
2022-08-29T00:35:51.441Z,2.33
2022-08-29T00:38:39.424Z,2.30
2022-08-29T00:41:29.793Z,2.40
2022-08-29T00:44:17.817Z,2.55
2022-08-29T00:47:12.488Z,2.47
2022-08-29T00:50:02.612Z,2.33
2022-08-29T00:52:50.743Z,2.42
2022-08-29T00:55:40.450Z,2.40
2022-08-29T00:58:36.456Z,2.55
2022-08-29T01:01:24.348Z,2.42
2022-08-29T01:04:15.706Z,1.95
2022-08-29T01:07:04.295Z,2.25
2022-08-29T01:09:53.012Z,2.35
2022-08-29T01:12:41.323Z,2.38
2022-08-29T01:15:31.664Z,2.00
2022-08-29T01:18:20.399Z,2.28
2022-08-29T01:21:22.457Z,2.42
2022-08-29T01:24:15.621Z,2.50
2022-08-29T01:27:03.773Z,2.20
2022-08-29T01:29:51.610Z,2.15
2022-08-29T01:32:39.650Z,2.60
2022-08-29T01:35:28.349Z,2.33
2022-08-29T01:38:27.581Z,2.38
2022-08-29T01:41:18.182Z,2.15
2022-08-29T01:44:13.508Z,2.97
2022-08-29T01:47:03.380Z,2.67
2022-08-29T01:49:52.635Z,3.17
2022-08-29T01:52:43.155Z,2.47
2022-08-29T01:55:30.974Z,2.58
2022-08-29T01:58:18.883Z,3.20
2022-08-29T02:01:07.850Z,2.40
2022-08-29T02:03:56.030Z,2.60
2022-08-29T02:06:44.957Z,2.60
2022-08-29T02:09:32.761Z,3.25
2022-08-29T02:12:21.621Z,2.97
2022-08-29T02:15:10.587Z,2.65
2022-08-29T02:17:58.356Z,3.03
2022-08-29T02:20:46.489Z,3.13
2022-08-29T02:23:37.615Z,2.58
2022-08-29T02:26:25.681Z,2.30
2022-08-29T02:29:13.468Z,2.67
2022-08-29T02:32:01.977Z,2.83
2022-08-29T02:34:49.830Z,3.72
2022-08-29T02:37:37.716Z,3.00
2022-08-29T02:40:31.461Z,2.72
2022-08-29T02:43:21.450Z,3.45
2022-08-29T02:46:15.957Z,3.28
2022-08-29T02:49:04.360Z,2.67
2022-08-29T02:51:52.179Z,2.97
2022-08-29T02:54:40.043Z,2.70
2022-08-29T02:57:27.885Z,2.80
2022-08-29T03:00:21.904Z,4.03
2022-08-29T03:03:10.136Z,2.60
2022-08-29T03:05:58.556Z,2.50
2022-08-29T03:08:46.559Z,2.95
2022-08-29T03:11:34.880Z,2.78
2022-08-29T03:14:24.229Z,3.03
2022-08-29T03:17:12.116Z,3.10
2022-08-29T03:20:00.041Z,2.85
2022-08-29T03:22:49.133Z,3.42
2022-08-29T03:25:37.357Z,2.90
2022-08-29T03:28:25.715Z,3.22
2022-08-29T03:31:14.168Z,3.20
2022-08-29T03:34:01.997Z,3.10
2022-08-29T03:36:49.843Z,2.78
2022-08-29T03:39:38.020Z,3.78
2022-08-29T03:42:25.972Z,3.47
2022-08-29T03:45:17.548Z,2.97
2022-08-29T03:48:05.812Z,3.25
2022-08-29T03:50:56.445Z,3.88
2022-08-29T03:53:45.692Z,3.67
2022-08-29T03:56:35.258Z,3.60
2022-08-29T03:59:24.132Z,3.67
2022-08-29T04:02:12.082Z,3.33
2022-08-29T04:05:08.942Z,3.95
2022-08-29T04:07:59.591Z,3.20
2022-08-29T04:10:47.360Z,3.63
2022-08-29T04:13:35.284Z,3.38
2022-08-29T04:16:30.402Z,3.83
2022-08-29T04:19:20.951Z,3.83
2022-08-29T04:22:08.804Z,3.67
2022-08-29T04:24:56.653Z,3.58
2022-08-29T04:27:45.084Z,5.55
2022-08-29T04:30:33.312Z,4.28
2022-08-29T04:33:25.691Z,3.67
2022-08-29T04:36:15.054Z,3.67
2022-08-29T04:39:03.989Z,3.53
2022-08-29T04:41:51.823Z,3.83
2022-08-29T04:44:40.094Z,3.80
2022-08-29T04:47:27.954Z,4.43
2022-08-29T04:50:20.255Z,4.13
2022-08-29T04:53:08.119Z,3.65
2022-08-29T04:56:03.341Z,3.85
2022-08-29T04:58:52.101Z,4.07
2022-08-29T05:01:43.117Z,3.95
2022-08-29T05:04:30.995Z,3.95
2022-08-29T05:07:25.465Z,4.10
2022-08-29T05:10:17.595Z,3.50
2022-08-29T05:13:05.412Z,3.33
2022-08-29T05:15:53.284Z,4.45
2022-08-29T05:18:41.678Z,3.20
2022-08-29T05:21:35.996Z,4.63
2022-08-29T05:24:24.241Z,4.63
2022-08-29T05:27:19.621Z,5.03
2022-08-29T05:30:08.633Z,4.18
2022-08-29T05:32:56.521Z,5.25
2022-08-29T05:35:45.106Z,4.93
2022-08-29T05:38:33.249Z,4.40
2022-08-29T05:41:21.126Z,3.58
2022-08-29T05:44:08.964Z,3.92
2022-08-29T05:46:56.793Z,4.00
2022-08-29T05:49:46.578Z,3.58
2022-08-29T05:52:34.383Z,4.35
2022-08-29T05:55:22.632Z,3.45
2022-08-29T05:58:12.343Z,3.90
2022-08-29T06:01:00.195Z,4.05
2022-08-29T06:03:50.386Z,4.47
2022-08-29T06:06:41.201Z,4.22
2022-08-29T06:09:29.070Z,3.85
2022-08-29T06:12:16.998Z,4.25
2022-08-29T06:15:05.991Z,4.47
2022-08-29T06:17:54.767Z,4.00
2022-08-29T06:20:42.630Z,4.03
2022-08-29T06:23:30.450Z,4.28
2022-08-29T06:26:19.737Z,3.92
2022-08-29T06:29:09.917Z,3.70
2022-08-29T06:31:59.291Z,3.25
2022-08-29T06:34:47.392Z,3.60
2022-08-29T06:37:35.197Z,3.55
2022-08-29T06:40:23.222Z,3.67
2022-08-29T06:43:11.067Z,3.88
2022-08-29T06:45:59.452Z,3.45
2022-08-29T06:48:47.370Z,4.03
2022-08-29T06:51:41.873Z,4.30
2022-08-29T06:54:29.844Z,3.97
2022-08-29T06:57:17.692Z,4.30
2022-08-29T07:00:16.834Z,3.60
2022-08-29T07:03:11.084Z,3.67
2022-08-29T07:05:59.095Z,3.75
2022-08-29T07:08:55.662Z,4.47
2022-08-29T07:11:44.410Z,4.18
2022-08-29T07:14:32.439Z,3.65
2022-08-29T07:17:25.948Z,3.65
2022-08-29T07:20:15.353Z,3.40
2022-08-29T07:23:03.268Z,4.00
2022-08-29T07:25:51.113Z,4.28
2022-08-29T07:28:40.626Z,4.13
2022-08-29T07:31:33.531Z,3.33
2022-08-29T07:34:21.429Z,3.33
2022-08-29T07:37:10.841Z,3.35
2022-08-29T07:39:58.731Z,3.75
2022-08-29T07:42:46.710Z,3.90
2022-08-29T07:45:34.640Z,3.75
2022-08-29T07:48:24.020Z,4.00
2022-08-29T07:51:16.441Z,3.85
2022-08-29T07:54:06.489Z,3.60
2022-08-29T07:56:54.408Z,3.40
2022-08-29T07:59:42.362Z,3.45
2022-08-29T08:02:30.557Z,3.20
2022-08-29T08:05:20.090Z,3.55
2022-08-29T08:08:14.885Z,3.67
2022-08-29T08:11:07.977Z,3.92
2022-08-29T08:13:57.492Z,3.03
2022-08-29T08:16:45.900Z,3.38
2022-08-29T08:19:33.979Z,4.65
2022-08-29T08:22:22.006Z,3.47
2022-08-29T08:25:10.160Z,3.63
2022-08-29T08:27:59.471Z,3.85
2022-08-29T08:30:48.877Z,3.75
2022-08-29T08:33:39.055Z,3.42
2022-08-29T08:36:32.260Z,3.22
2022-08-29T08:39:22.717Z,3.17
2022-08-29T08:42:24.899Z,3.55
2022-08-29T08:45:27.002Z,3.75
2022-08-29T08:48:34.458Z,3.33
2022-08-29T08:51:29.416Z,3.58
2022-08-29T08:54:34.310Z,3.40
2022-08-29T08:57:22.953Z,3.92
2022-08-29T09:00:13.061Z,3.45
2022-08-29T09:03:18.373Z,3.97
2022-08-29T09:06:55.563Z,3.75
2022-08-29T09:10:16.289Z,3.28
2022-08-29T09:13:36.738Z,3.78
2022-08-29T09:16:34.969Z,4.05
2022-08-29T09:19:27.770Z,3.25
2022-08-29T09:22:32.811Z,4.07
2022-08-29T09:25:27.892Z,3.13
2022-08-29T09:28:18.187Z,3.58
2022-08-29T09:31:32.907Z,3.30
2022-08-29T09:35:06.918Z,3.22
2022-08-29T09:38:01.140Z,3.60
2022-08-29T09:41:01.247Z,3.25
2022-08-29T09:43:52.708Z,2.55
2022-08-29T09:46:42.845Z,2.70
2022-08-29T09:49:32.450Z,2.67
2022-08-29T09:52:26.620Z,3.05
2022-08-29T09:55:23.973Z,2.92
2022-08-29T09:58:34.246Z,2.13
2022-08-29T10:01:28.803Z,2.53
2022-08-29T10:04:40.562Z,2.33
2022-08-29T10:07:45.917Z,2.67
2022-08-29T10:10:54.907Z,2.15
2022-08-29T10:13:58.776Z,2.40
2022-08-29T10:17:42.174Z,2.50
2022-08-29T10:21:10.398Z,1.95
2022-08-29T10:24:57.937Z,2.35
2022-08-29T10:28:06.325Z,2.45
2022-08-29T10:31:33.920Z,2.42
2022-08-29T10:35:06.540Z,2.10
2022-08-29T10:38:28.954Z,2.45
2022-08-29T10:41:57.097Z,2.47
2022-08-29T10:45:14.940Z,2.60
2022-08-29T10:48:29.838Z,2.25
2022-08-29T10:51:42.025Z,2.50
2022-08-29T10:55:06.714Z,2.50
2022-08-29T10:58:21.881Z,2.47
2022-08-29T11:01:38.779Z,2.65
2022-08-29T11:04:39.517Z,2.22
2022-08-29T11:07:42.649Z,2.72
2022-08-29T11:10:40.598Z,2.45
2022-08-29T11:13:48.129Z,2.83
2022-08-29T11:16:50.599Z,2.28
2022-08-29T11:19:50.224Z,2.40
2022-08-29T11:23:00.409Z,2.45
2022-08-29T11:25:51.237Z,2.30
2022-08-29T11:29:37.515Z,2.72
2022-08-29T11:32:56.255Z,2.70
2022-08-29T11:36:43.363Z,2.35
2022-08-29T11:40:10.193Z,2.50
2022-08-29T11:43:02.556Z,2.72
2022-08-29T11:46:07.537Z,2.55
2022-08-29T11:49:27.858Z,2.67
2022-08-29T11:52:25.636Z,2.47
2022-08-29T11:55:31.814Z,2.50
2022-08-29T11:58:22.767Z,2.65
2022-08-29T12:01:34.346Z,2.40
2022-08-29T12:05:03.524Z,2.15
2022-08-29T12:08:38.430Z,2.72
2022-08-29T12:12:14.152Z,2.25
2022-08-29T12:15:32.416Z,2.20
2022-08-29T12:18:20.359Z,3.05
2022-08-29T12:21:37.718Z,2.60
2022-08-29T12:24:42.993Z,2.47
2022-08-29T12:28:20.832Z,2.33
2022-08-29T12:32:08.713Z,2.53
2022-08-29T12:35:47.401Z,2.33
2022-08-29T12:39:09.215Z,2.22
2022-08-29T12:42:39.988Z,2.60
2022-08-29T12:45:32.732Z,2.55
2022-08-29T12:48:32.342Z,2.95
2022-08-29T12:51:42.617Z,2.45
2022-08-29T12:54:42.001Z,2.22
2022-08-29T12:57:38.948Z,2.60
2022-08-29T13:00:33.909Z,2.35
2022-08-29T13:03:25.229Z,2.35
2022-08-29T13:06:15.596Z,2.58
2022-08-29T13:09:07.627Z,2.80
2022-08-29T13:12:21.888Z,2.30
2022-08-29T13:15:32.099Z,2.13
2022-08-29T13:18:23.665Z,2.40
2022-08-29T13:21:27.185Z,2.35
2022-08-29T13:24:21.664Z,2.60
2022-08-29T13:27:14.506Z,2.88
2022-08-29T13:30:04.679Z,1.83
2022-08-29T13:32:55.860Z,2.25
2022-08-29T13:35:45.490Z,2.50
2022-08-29T13:38:37.959Z,2.42
2022-08-29T13:41:31.076Z,2.40
2022-08-29T13:44:30.999Z,2.45
2022-08-29T13:47:33.584Z,2.90
2022-08-29T13:50:23.962Z,2.30
2022-08-29T13:53:15.808Z,2.58
2022-08-29T13:56:21.506Z,2.78
2022-08-29T13:59:12.918Z,2.40
2022-08-29T14:02:09.488Z,2.75
2022-08-29T14:04:59.418Z,2.20
2022-08-29T14:07:48.999Z,2.20
2022-08-29T14:10:41.563Z,2.65
2022-08-29T14:13:33.356Z,3.00
2022-08-29T14:16:25.004Z,2.95
2022-08-29T14:19:16.832Z,2.83
2022-08-29T14:22:07.480Z,2.58
2022-08-29T14:24:57.903Z,2.22
2022-08-29T14:27:48.178Z,2.40
2022-08-29T14:30:41.148Z,2.75
2022-08-29T14:33:43.067Z,2.90
2022-08-29T14:36:38.578Z,2.38
2022-08-29T14:39:35.939Z,2.47
2022-08-29T14:42:25.799Z,2.60
2022-08-29T14:45:15.964Z,2.58
2022-08-29T14:48:06.852Z,2.80
2022-08-29T14:50:57.638Z,2.13
2022-08-29T14:53:54.225Z,2.17
2022-08-29T14:56:48.750Z,2.60
2022-08-29T14:59:42.797Z,2.70
2022-08-29T15:02:32.453Z,2.13
2022-08-29T15:05:22.485Z,2.20
2022-08-29T15:08:15.805Z,2.65
2022-08-29T15:11:13.490Z,2.42
2022-08-29T15:14:04.385Z,2.70
2022-08-29T15:16:54.547Z,2.05
2022-08-29T15:20:31.539Z,2.65
2022-08-29T15:22:56.849Z,2.45
2022-08-29T15:25:51.868Z,2.13
2022-08-29T15:28:45.773Z,2.05
2022-08-29T15:31:35.305Z,1.98
2022-08-29T15:34:31.137Z,2.83
2022-08-29T15:37:21.992Z,2.60
2022-08-29T15:40:13.334Z,2.05
2022-08-29T15:43:03.492Z,2.55
2022-08-29T15:45:53.491Z,2.58
2022-08-29T15:48:46.551Z,2.42
2022-08-29T15:51:36.461Z,2.83
2022-08-29T15:54:26.639Z,2.55
2022-08-29T15:57:15.095Z,2.38
2022-08-29T16:00:10.258Z,2.13
2022-08-29T16:03:02.894Z,2.75
2022-08-29T16:05:53.677Z,3.03
2022-08-29T16:08:46.836Z,2.53
2022-08-29T16:11:37.131Z,2.88
2022-08-29T16:14:58.176Z,2.50
2022-08-29T16:17:41.376Z,2.55
2022-08-29T16:20:32.796Z,2.60
2022-08-29T16:23:24.241Z,3.45
2022-08-29T16:26:13.738Z,2.50
2022-08-29T16:29:06.449Z,2.30
2022-08-29T16:32:01.218Z,2.60
2022-08-29T16:34:52.438Z,2.10
2022-08-29T16:37:45.146Z,2.50
2022-08-29T16:40:36.900Z,2.40
2022-08-29T16:43:27.733Z,2.35
2022-08-29T16:46:21.561Z,2.53
2022-08-29T16:49:11.186Z,2.40
2022-08-29T16:52:03.686Z,2.20
2022-08-29T16:54:56.987Z,2.72
2022-08-29T16:58:06.129Z,2.20
2022-08-29T17:01:00.287Z,2.45
2022-08-29T17:03:48.554Z,2.67
2022-08-29T17:06:39.716Z,2.45
2022-08-29T17:09:27.798Z,2.33
2022-08-29T17:12:16.301Z,2.28
2022-08-29T17:15:04.853Z,2.65
2022-08-29T17:17:55.283Z,2.17
2022-08-29T17:20:46.275Z,2.90
2022-08-29T17:23:38.336Z,2.28
2022-08-29T17:26:28.991Z,2.58
2022-08-29T17:29:17.590Z,2.10
2022-08-29T17:32:09.892Z,2.42
2022-08-29T17:35:01.914Z,2.30
2022-08-29T17:37:52.081Z,2.75
2022-08-29T17:40:43.830Z,3.40
2022-08-29T17:43:36.422Z,2.33
2022-08-29T17:46:29.441Z,2.65
2022-08-29T17:49:19.992Z,2.95
2022-08-29T17:52:11.169Z,2.17
2022-08-29T17:55:06.620Z,2.45
2022-08-29T17:57:59.197Z,2.78
2022-08-29T18:00:49.725Z,2.28
2022-08-29T18:03:40.651Z,2.63
2022-08-29T18:06:32.513Z,2.33
2022-08-29T18:09:25.839Z,3.00
2022-08-29T18:12:17.891Z,2.75
2022-08-29T18:15:09.273Z,2.70
2022-08-29T18:17:59.933Z,2.67
2022-08-29T18:20:50.797Z,2.33
2022-08-29T18:23:41.719Z,2.30
2022-08-29T18:26:32.026Z,3.25
2022-08-29T18:29:21.917Z,2.65
2022-08-29T18:32:11.708Z,2.85
2022-08-29T18:35:04.320Z,2.83
2022-08-29T18:37:54.970Z,2.65
2022-08-29T18:40:46.754Z,3.25
2022-08-29T18:43:40.764Z,2.80
2022-08-29T18:46:32.470Z,2.92
2022-08-29T18:49:40.842Z,3.10
2022-08-29T18:52:29.978Z,2.97
2022-08-29T18:55:19.906Z,3.05
2022-08-29T18:58:10.958Z,2.58
2022-08-29T19:01:11.304Z,2.78
2022-08-29T19:04:02.313Z,3.00
2022-08-29T19:06:50.380Z,3.00
2022-08-29T19:09:38.408Z,2.70
2022-08-29T19:12:26.422Z,2.90
2022-08-29T19:15:15.440Z,2.88
2022-08-29T19:18:06.877Z,3.33
2022-08-29T19:21:06.639Z,3.60
2022-08-29T19:23:55.877Z,2.85
2022-08-29T19:26:43.940Z,3.40
2022-08-29T19:29:31.978Z,2.95
2022-08-29T19:32:20.015Z,2.80
2022-08-29T19:35:10.976Z,3.10
2022-08-29T19:37:59.389Z,3.00
2022-08-29T19:40:48.643Z,3.05
2022-08-29T19:43:38.635Z,2.63
2022-08-29T19:46:27.519Z,3.03
2022-08-29T19:49:15.472Z,2.70
2022-08-29T19:52:04.167Z,2.60
2022-08-29T19:54:53.889Z,2.60
2022-08-29T19:57:43.840Z,3.03
2022-08-29T20:00:32.804Z,3.38
2022-08-29T20:03:20.879Z,2.80
2022-08-29T20:06:09.806Z,2.35
2022-08-29T20:08:58.455Z,2.75
2022-08-29T20:11:47.539Z,2.25
2022-08-29T20:14:35.533Z,2.75
2022-08-29T20:17:23.410Z,3.67
2022-08-29T20:20:18.676Z,3.25
2022-08-29T20:23:07.815Z,2.35
2022-08-29T20:25:55.805Z,2.60
2022-08-29T20:28:43.787Z,3.00
2022-08-29T20:31:32.440Z,2.85
2022-08-29T20:34:20.589Z,2.88
2022-08-29T20:37:08.758Z,3.75
2022-08-29T20:39:57.505Z,2.80
2022-08-29T20:42:45.527Z,3.03
2022-08-29T20:45:33.854Z,2.65
2022-08-29T20:48:22.275Z,3.35
2022-08-29T20:51:11.740Z,2.75
2022-08-29T20:53:59.661Z,3.70
2022-08-29T20:56:48.536Z,3.00
2022-08-29T20:59:39.351Z,3.90
2022-08-29T21:02:46.088Z,3.38
2022-08-29T21:05:43.147Z,3.03
2022-08-29T21:08:32.081Z,3.20
2022-08-29T21:11:20.964Z,3.47
2022-08-29T21:14:10.240Z,2.80
2022-08-29T21:16:58.494Z,3.08
2022-08-29T21:19:47.260Z,2.78
2022-08-29T21:22:35.318Z,2.53
2022-08-29T21:25:23.229Z,2.72
2022-08-29T21:28:13.987Z,3.10
2022-08-29T21:31:10.400Z,2.80
2022-08-29T21:34:00.359Z,3.22
2022-08-29T21:36:50.577Z,3.08
2022-08-29T21:39:38.460Z,2.75
2022-08-29T21:42:26.344Z,2.70
2022-08-29T21:45:14.280Z,2.95
2022-08-29T21:48:02.182Z,3.17
2022-08-29T21:50:55.738Z,2.28
2022-08-29T21:53:43.613Z,2.72
2022-08-29T21:56:33.134Z,2.70
2022-08-29T21:59:21.816Z,2.95
2022-08-29T22:02:09.878Z,2.47
2022-08-29T22:04:57.781Z,2.60
2022-08-29T22:07:46.009Z,2.40
2022-08-29T22:10:36.968Z,2.83
2022-08-29T22:13:24.810Z,2.53
2022-08-29T22:16:30.802Z,3.17
2022-08-29T22:19:19.077Z,3.08
2022-08-29T22:22:06.965Z,2.30
2022-08-29T22:24:54.822Z,2.85
2022-08-29T22:27:42.706Z,2.15
2022-08-29T22:30:32.415Z,2.65
2022-08-29T22:33:20.915Z,3.22
2022-08-29T22:36:13.109Z,2.65
2022-08-29T22:39:01.037Z,3.45
2022-08-29T22:41:48.911Z,2.80
2022-08-29T22:47:46.710Z,2.78
2022-08-29T22:50:36.153Z,3.20
2022-08-29T22:53:24.174Z,2.63
2022-08-29T22:56:12.024Z,2.80
2022-08-29T22:59:00.856Z,2.80
2022-08-29T23:01:49.188Z,3.05
2022-08-29T23:04:38.479Z,3.40
2022-08-29T23:07:26.642Z,3.35
2022-08-29T23:10:15.486Z,3.15
2022-08-29T23:13:03.508Z,2.85
2022-08-29T23:15:51.449Z,3.13
2022-08-29T23:18:39.572Z,2.83
2022-08-29T23:21:29.262Z,3.10
2022-08-29T23:24:18.532Z,2.92
2022-08-29T23:27:07.065Z,2.67
2022-08-29T23:29:55.036Z,2.63
2022-08-29T23:32:42.899Z,2.58
2022-08-29T23:35:30.729Z,2.72
2022-08-29T23:38:19.003Z,3.30
2022-08-29T23:41:07.193Z,3.03
2022-08-29T23:43:55.139Z,2.90
2022-08-29T23:46:43.085Z,3.25
2022-08-29T23:49:31.377Z,3.03
2022-08-29T23:52:19.377Z,2.97
2022-08-29T23:55:08.387Z,3.00
2022-08-29T23:57:56.240Z,3.05
